Time;durP1;ratioP1;P1;durP2;ratioP2;P2;SDS_P1;SDS_P2;PMS_P1;PMS_P2;Temp;Humidity;BMP_temperature;BMP_pressure;BME280_temperature;BME280_humidity;BME280_pressure;Samples;Min_cycle;Max_cycle;Signal;HPM_P1;HPM_P2
2021/03/22 00:02:25;;;;;;;;;60.67;53.33;;;;;0.97;70.62;101023.06;4881603;29;8868;-76
2021/03/22 00:05:21;;;;;;;;;66.33;55.33;;;;;1.13;70.67;101019.38;4875892;29;8890;-76
2021/03/22 00:08:18;;;;;;;;;74.67;59.33;;;;;0.97;70.01;101023.06;4879734;29;8847;-75
2021/03/22 00:10:51;;;;;;;;;82.00;61.33;;;;;0.88;70.36;101021.91;4871969;29;8985;-75
2021/03/22 00:13:46;;;;;;;;;84.75;65.75;;;;;0.99;70.75;101024.44;4878085;29;8882;-75
2021/03/22 00:16:42;;;;;;;;;99.00;77.75;;;;;0.92;70.39;101036.63;4878822;29;8878;-75
2021/03/22 00:19:37;;;;;;;;;87.00;67.25;;;;;0.82;70.62;101037.34;4873301;29;8876;-75
2021/03/22 00:22:33;;;;;;;;;119.00;96.00;;;;;0.82;70.51;101031.91;4879080;29;9695;-76
2021/03/22 00:25:29;;;;;;;;;113.75;89.25;;;;;0.85;70.07;101025.16;4871407;29;9069;-75
2021/03/22 00:28:26;;;;;;;;;109.50;86.50;;;;;0.83;70.40;101025.38;4878070;29;8959;-74
2021/03/22 00:30:53;;;;;;;;;107.50;82.25;;;;;0.69;70.80;101029.59;4881375;29;8938;-75
2021/03/22 00:33:49;;;;;;;;;134.50;102.50;;;;;0.53;71.57;101029.44;4872818;29;8903;-76
2021/03/22 00:36:44;;;;;;;;;128.50;107.50;;;;;0.40;72.08;101034.47;4870073;29;8956;-75
2021/03/22 00:39:43;;;;;;;;;89.50;74.75;;;;;0.68;71.03;101033.41;4869872;29;8943;-75
2021/03/22 00:42:38;;;;;;;;;134.50;102.25;;;;;0.71;71.65;101024.72;4880494;29;8855;-76
2021/03/22 00:45:34;;;;;;;;;112.75;88.75;;;;;0.64;71.09;101010.50;4878146;29;8868;-75
2021/03/22 00:48:33;;;;;;;;;108.25;88.00;;;;;0.65;70.90;101020.31;4874947;29;8859;-74
2021/03/22 00:51:29;;;;;;;;;100.75;75.75;;;;;0.55;71.99;101018.31;4872145;29;8910;-75
2021/03/22 00:54:24;;;;;;;;;114.75;87.50;;;;;0.45;71.01;101018.19;4877537;29;8846;-75
2021/03/22 00:57:20;;;;;;;;;108.75;81.75;;;;;0.59;71.45;101018.59;4879755;29;8866;-75
2021/03/22 00:59:56;;;;;;;;;112.00;85.50;;;;;0.68;71.33;101023.31;4870553;29;8993;-75
2021/03/22 01:02:53;;;;;;;;;109.00;85.75;;;;;0.62;70.80;101035.25;4878308;29;8886;-75
2021/03/22 01:05:50;;;;;;;;;114.75;95.25;;;;;0.57;70.93;101016.16;4879312;29;8851;-76
2021/03/22 01:08:46;;;;;;;;;108.75;88.75;;;;;0.51;70.79;101015.25;4878405;29;8910;-75
2021/03/22 01:11:42;;;;;;;;;103.75;78.75;;;;;0.64;70.65;101005.06;4879003;29;8866;-75
2021/03/22 01:14:37;;;;;;;;;111.00;90.25;;;;;0.48;70.81;101006.81;4879022;29;8860;-76
2021/03/22 01:17:33;;;;;;;;;104.25;78.75;;;;;0.53;70.52;101002.22;4878706;29;8864;-75
2021/03/22 01:20:37;;;;;;;;;111.75;89.50;;;;;0.58;70.41;101006.91;4876938;29;8995;-75
2021/03/22 01:23:21;;;;;;;;;106.25;80.75;;;;;0.76;69.92;100997.53;4880734;29;8871;-76
2021/03/22 01:26:23;;;;;;;;;88.25;71.75;;;;;0.72;70.27;100993.69;4877744;29;8860;-76
2021/03/22 01:28:52;;;;;;;;;95.75;75.00;;;;;0.80;69.63;100988.59;4899646;29;8911;-76
2021/03/22 01:31:48;;;;;;;;;84.75;68.25;;;;;0.84;70.50;100986.16;4893089;29;8876;-75
2021/03/22 01:34:43;;;;;;;;;95.00;72.25;;;;;0.92;69.87;100988.44;4878635;29;8873;-76
2021/03/22 01:37:39;;;;;;;;;92.25;71.25;;;;;0.91;69.44;100984.06;4871105;29;8898;-75
2021/03/22 01:40:53;;;;;;;;;92.25;72.75;;;;;0.92;69.10;100984.88;4871342;29;8852;-75
2021/03/22 01:44:07;;;;;;;;;101.50;76.25;;;;;0.81;70.00;100979.34;4877301;29;8867;-76
2021/03/22 01:46:51;;;;;;;;;93.75;71.00;;;;;0.61;69.70;100986.50;4871790;29;8918;-77
2021/03/22 01:49:58;;;;;;;;;94.00;72.75;;;;;0.68;70.40;100977.03;4857487;29;9745;-76
2021/03/22 01:52:27;;;;;;;;;90.75;69.75;;;;;0.52;70.14;100977.97;4878994;29;8891;-76
2021/03/22 01:55:24;;;;;;;;;94.00;72.75;;;;;0.49;70.80;100981.22;4878498;29;8869;-76
2021/03/22 01:58:19;;;;;;;;;99.50;76.00;;;;;0.48;70.33;100980.41;4878040;29;8999;-76
2021/03/22 02:01:16;;;;;;;;;104.75;84.00;;;;;0.48;70.62;100979.59;4877599;29;8873;-77
2021/03/22 02:04:12;;;;;;;;;97.25;76.00;;;;;0.36;70.91;100978.91;4876427;29;8856;-76
2021/03/22 02:06:39;;;;;;;;;105.25;80.00;;;;;0.21;71.15;100979.56;4880144;29;8859;-77
2021/03/22 02:09:36;;;;;;;;;108.75;85.00;;;;;0.16;71.75;100977.63;4876945;29;8943;-77
2021/03/22 02:12:31;;;;;;;;;82.25;58.25;;;;;0.22;72.10;100975.75;4878225;29;8848;-77
2021/03/22 02:15:27;;;;;;;;;102.75;82.00;;;;;0.25;71.31;100978.00;4880439;29;8937;-77
2021/03/22 02:18:05;;;;;;;;;95.75;75.25;;;;;0.26;70.82;100980.44;4870032;29;8879;-77
2021/03/22 02:21:11;;;;;;;;;102.75;68.75;;;;;0.13;72.07;100971.84;4869143;29;8942;-77
2021/03/22 02:24:28;;;;;;;;;105.00;80.25;;;;;-0.01;71.43;100964.06;4894811;29;9676;-77
2021/03/22 02:27:43;;;;;;;;;109.50;93.25;;;;;0.16;71.68;100968.63;4878517;29;8974;-77
2021/03/22 02:31:06;;;;;;;;;101.50;84.75;;;;;0.11;71.61;100958.50;4883561;29;8856;-78
2021/03/22 02:34:11;;;;;;;;;109.00;90.00;;;;;0.21;71.58;100953.19;4875487;29;8854;-77
2021/03/22 02:37:39;;;;;;;;;108.50;85.25;;;;;0.17;71.27;100957.50;4878146;29;8951;-77
2021/03/22 02:40:37;;;;;;;;;114.25;93.75;;;;;0.34;70.67;100946.53;4870275;29;8902;-77
2021/03/22 02:43:37;;;;;;;;;110.00;86.00;;;;;0.33;70.74;100941.34;4878811;29;8868;-78
2021/03/22 02:46:35;;;;;;;;;108.75;85.25;;;;;0.27;70.73;100945.91;4876368;29;8883;-77
2021/03/22 02:49:34;;;;;;;;;109.50;81.75;;;;;0.36;71.19;100940.81;4878304;29;8881;-77
2021/03/22 02:52:53;;;;;;;;;103.00;77.75;;;;;0.32;71.35;100936.97;4871395;29;8867;-77
2021/03/22 02:55:59;;;;;;;;;95.25;76.00;;;;;0.46;70.51;100936.31;4879672;29;9588;-77
2021/03/22 02:58:48;;;;;;;;;103.75;77.00;;;;;0.43;71.29;100941.44;4870438;29;8867;-77
2021/03/22 03:02:04;;;;;;;;;97.75;75.50;;;;;0.25;71.05;100932.56;4871645;29;8882;-77
2021/03/22 03:05:22;;;;;;;;;107.50;84.00;;;;;0.21;72.02;100942.28;4879857;29;8867;-76
2021/03/22 03:08:21;;;;;;;;;112.50;93.50;;;;;0.38;72.23;100935.94;4878872;29;8894;-76
2021/03/22 03:11:18;;;;;;;;;115.50;91.00;;;;;0.19;72.02;100930.03;4895409;29;8871;-76
2021/03/22 03:13:54;;;;;;;;;126.00;96.00;;;;;0.30;71.74;100930.94;4879528;29;8883;-77
2021/03/22 03:16:49;;;;;;;;;114.25;93.75;;;;;0.36;72.24;100929.94;4881462;29;8864;-77
2021/03/22 03:19:45;;;;;;;;;114.00;89.00;;;;;0.34;72.48;100927.47;4880955;29;9597;-77
2021/03/22 03:22:41;;;;;;;;;111.25;86.25;;;;;0.49;72.08;100929.53;4879285;29;8921;-78
2021/03/22 03:25:36;;;;;;;;;116.00;97.00;;;;;0.34;72.93;100913.88;4880502;29;8891;-77
2021/03/22 03:28:05;;;;;;;;;108.25;78.25;;;;;0.52;72.05;100910.75;4858012;29;8878;-76
2021/03/22 03:31:01;;;;;;;;;112.50;98.50;;;;;0.54;71.92;100913.25;4872621;29;8899;-77
2021/03/22 03:33:56;;;;;;;;;141.00;108.50;;;;;0.64;71.82;100910.59;4872593;29;8927;-76
2021/03/22 03:36:53;;;;;;;;;169.50;141.75;;;;;0.68;71.84;100909.00;4881740;29;8858;-76
2021/03/22 03:39:49;;;;;;;;;141.50;114.00;;;;;0.74;71.39;100902.50;4873890;29;8843;-78
2021/03/22 03:42:45;;;;;;;;;114.75;98.50;;;;;0.78;71.42;100902.81;4879379;29;8856;-77
2021/03/22 03:45:44;;;;;;;;;129.25;108.25;;;;;0.72;71.57;100910.13;4881027;29;8928;-77
2021/03/22 03:48:39;;;;;;;;;158.75;122.50;;;;;0.66;71.96;100903.00;4880944;29;8892;-77
2021/03/22 03:51:07;;;;;;;;;130.25;108.25;;;;;0.64;72.27;100912.50;4882510;29;8901;-77
2021/03/22 03:54:05;;;;;;;;;129.75;113.50;;;;;0.64;72.89;100913.31;4879261;29;9481;-76
2021/03/22 03:57:00;;;;;;;;;117.00;96.50;;;;;0.56;72.88;100902.91;4871835;29;8863;-76
2021/03/22 03:59:56;;;;;;;;;147.00;122.50;;;;;0.68;73.51;100902.72;4879886;29;8890;-75
2021/03/22 04:02:53;;;;;;;;;124.50;107.00;;;;;0.52;73.32;100891.72;4878888;29;8856;-76
2021/03/22 04:06:08;;;;;;;;;128.50;104.00;;;;;0.49;73.89;100894.97;4879281;29;8858;-75
2021/03/22 04:09:09;;;;;;;;;110.75;92.75;;;;;0.69;73.40;100897.03;4872436;29;8859;-77
2021/03/22 04:12:05;;;;;;;;;122.25;108.50;;;;;0.81;73.22;100892.22;4879513;29;8966;-76
2021/03/22 04:14:47;;;;;;;;;123.00;108.25;;;;;0.90;73.07;100894.47;4881675;29;8914;-77
2021/03/22 04:17:29;;;;;;;;;116.00;101.50;;;;;0.78;72.68;100900.09;4871355;29;8902;-77
2021/03/22 04:19:57;;;;;;;;;116.50;95.75;;;;;0.70;73.18;100903.31;4872784;29;8886;-77
2021/03/22 04:22:52;;;;;;;;;141.25;114.00;;;;;0.75;73.40;100898.72;4878857;29;8996;-77
2021/03/22 04:25:48;;;;;;;;;129.00;106.00;;;;;0.85;73.20;100894.44;4877869;29;8874;-76
2021/03/22 04:28:19;;;;;;;;;107.75;89.50;;;;;1.01;73.27;100899.72;4872769;29;8950;-77
2021/03/22 04:31:20;;;;;;;;;121.25;93.50;;;;;1.03;72.77;100899.47;4863481;29;8990;-77
2021/03/22 04:34:16;;;;;;;;;116.75;97.00;;;;;1.14;73.14;100895.72;4879592;29;8935;-75
2021/03/22 04:37:11;;;;;;;;;118.00;102.50;;;;;1.11;73.72;100896.25;4879081;29;8863;-76
2021/03/22 04:40:08;;;;;;;;;137.25;102.50;;;;;1.43;73.22;100893.41;4877695;29;9646;-77
2021/03/22 04:43:04;;;;;;;;;116.00;103.75;;;;;1.51;73.13;100898.38;4880640;29;8859;-76
2021/03/22 04:46:00;;;;;;;;;134.00;113.25;;;;;1.47;73.82;100907.34;4879006;29;8902;-77
2021/03/22 04:48:56;;;;;;;;;118.25;103.25;;;;;1.67;73.34;100904.69;4871485;29;9004;-77
2021/03/22 04:51:51;;;;;;;;;109.25;86.50;;;;;1.63;73.34;100900.88;4894604;29;8970;-76
2021/03/22 04:54:47;;;;;;;;;106.50;85.50;;;;;1.68;73.88;100895.44;4871205;29;8900;-76
2021/03/22 04:57:42;;;;;;;;;110.25;90.25;;;;;1.82;73.19;100893.84;4880960;29;8859;-75
2021/03/22 05:00:23;;;;;;;;;104.00;87.50;;;;;2.07;73.48;100892.28;4879706;29;8879;-77
2021/03/22 05:03:22;;;;;;;;;106.50;82.25;;;;;2.02;73.31;100892.28;4878945;29;8882;-77
2021/03/22 05:06:18;;;;;;;;;100.25;73.75;;;;;2.02;73.24;100897.75;4890897;29;8903;-76
2021/03/22 05:09:14;;;;;;;;;101.50;75.00;;;;;2.21;73.30;100902.41;4882826;29;8871;-76
2021/03/22 05:12:11;;;;;;;;;107.50;92.75;;;;;2.27;73.49;100900.53;4879908;29;8856;-75
2021/03/22 05:15:07;;;;;;;;;112.50;96.25;;;;;2.41;72.96;100915.28;4879713;29;8890;-77
2021/03/22 05:18:04;;;;;;;;;108.50;84.75;;;;;2.59;72.25;100918.56;4878641;29;8856;-77
2021/03/22 05:21:03;;;;;;;;;111.25;93.50;;;;;2.67;71.92;100915.28;4873099;29;8961;-77
2021/03/22 05:23:34;;;;;;;;;87.67;64.67;;;;;2.61;71.31;100917.22;4886474;29;8895;-78
2021/03/22 05:26:29;;;;;;;;;101.75;78.25;;;;;2.72;72.42;100921.59;4876660;29;8879;-78
2021/03/22 05:29:26;;;;;;;;;107.25;84.00;;;;;3.12;72.19;100919.09;4873214;29;8866;-75
2021/03/22 05:31:57;;;;;;;;;96.33;78.67;;;;;3.06;71.58;100905.44;4871430;29;8959;-74
2021/03/22 05:34:53;;;;;;;;;99.00;74.33;;;;;3.08;71.31;100912.56;4878957;29;8856;-75
2021/03/22 05:37:50;;;;;;;;;92.33;73.00;;;;;3.06;71.55;100910.09;4870999;29;8852;-75
2021/03/22 05:41:01;;;;;;;;;70.67;53.33;;;;;3.34;71.04;100905.94;4861120;29;8886;-75
2021/03/22 05:44:34;;;;;;;;;70.67;59.33;;;;;3.49;70.85;100894.16;4861903;29;8886;-75
2021/03/22 05:47:50;;;;;;;;;68.00;55.00;;;;;3.62;70.44;100902.59;4848424;29;8882;-74
2021/03/22 05:50:48;;;;;;;;;59.00;48.67;;;;;3.74;70.27;100902.25;4860876;29;8867;-76
2021/03/22 05:54:05;;;;;;;;;53.67;48.33;;;;;3.67;70.44;100892.69;4848185;29;8890;-75
2021/03/22 05:56:57;;;;;;;;;50.33;46.67;;;;;3.87;70.15;100889.88;4862528;29;8890;-76
2021/03/22 05:59:48;;;;;;;;;52.67;46.67;;;;;3.98;70.41;100893.38;4861003;29;11767;-74
2021/03/22 06:02:54;;;;;;;;;52.00;43.00;;;;;4.14;69.37;100894.94;4862244;29;8867;-74
2021/03/22 06:06:03;;;;;;;;;37.75;36.50;;;;;4.34;68.63;100896.72;4877638;29;11720;-75
2021/03/22 06:09:18;;;;;;;;;39.50;39.00;;;;;4.33;69.41;100895.09;4876506;29;11706;-76
2021/03/22 06:12:23;;;;;;;;;31.50;29.25;;;;;4.58;68.52;100888.59;4875916;29;11732;-76
2021/03/22 06:15:15;;;;;;;;;27.50;27.50;;;;;4.65;67.63;100886.38;4876214;29;11913;-74
2021/03/22 06:18:29;;;;;;;;;28.00;27.00;;;;;4.80;68.14;100886.22;4878401;29;11719;-74
2021/03/22 06:21:28;;;;;;;;;28.50;27.00;;;;;4.85;67.44;100883.47;4874651;29;11736;-75
2021/03/22 06:24:27;;;;;;;;;16.00;15.25;;;;;5.04;66.38;100878.06;4877742;29;12713;-73
2021/03/22 06:27:23;;;;;;;;;32.00;32.00;;;;;5.05;65.78;100873.38;4883136;29;11830;-74
2021/03/22 06:30:22;;;;;;;;;28.50;27.75;;;;;5.21;65.82;100866.66;4878675;29;11790;-73
2021/03/22 06:33:38;;;;;;;;;37.25;35.00;;;;;5.36;65.23;100866.47;4879602;29;11725;-74
2021/03/22 06:36:35;;;;;;;;;23.75;23.75;;;;;5.25;65.06;100863.03;4879344;29;11740;-73
2021/03/22 06:39:30;;;;;;;;;24.75;24.75;;;;;5.35;65.06;100867.59;4868065;29;11842;-72
2021/03/22 06:42:26;;;;;;;;;24.50;21.50;;;;;5.29;65.05;100869.59;4869095;29;11728;-73
2021/03/22 06:45:37;;;;;;;;;36.00;33.00;;;;;5.39;63.54;100865.91;4881438;29;12494;-74
2021/03/22 06:48:30;;;;;;;;;27.25;27.25;;;;;5.41;63.11;100865.63;4882493;29;11835;-73
2021/03/22 06:51:26;;;;;;;;;30.00;30.00;;;;;5.39;63.75;100857.69;4868971;29;12443;-73
2021/03/22 06:54:29;;;;;;;;;28.50;28.50;;;;;5.61;62.60;100862.63;4868715;29;11738;-74
2021/03/22 06:57:28;;;;;;;;;31.75;31.75;;;;;5.70;62.61;100869.09;4881873;29;11706;-74
2021/03/22 07:00:33;;;;;;;;;25.00;24.75;;;;;5.75;61.80;100865.44;4868894;29;11731;-74
2021/03/22 07:03:30;;;;;;;;;29.25;27.75;;;;;5.86;60.88;100865.03;4868404;29;11740;-74
2021/03/22 07:06:26;;;;;;;;;26.75;26.50;;;;;5.93;60.54;100870.19;4868374;29;12538;-74
2021/03/22 07:09:03;;;;;;;;;21.00;20.00;;;;;5.90;61.12;100864.44;4882641;29;11762;-74
2021/03/22 07:12:05;;;;;;;;;34.75;29.75;;;;;6.02;59.89;100864.88;4869355;29;11772;-75
2021/03/22 07:14:38;;;;;;;;;35.75;29.25;;;;;6.03;58.87;100855.50;4882504;29;11700;-74
2021/03/22 07:17:34;;;;;;;;;27.25;27.00;;;;;6.27;59.06;100848.00;4883945;29;11746;-74
2021/03/22 07:20:16;;;;;;;;;26.25;25.25;;;;;6.21;58.89;100845.63;4873430;29;11800;-73
2021/03/22 07:23:19;;;;;;;;;25.75;25.75;;;;;6.48;58.20;100855.94;4881659;29;11819;-74
2021/03/22 07:27:13;;;;;;;;;27.00;27.00;;;;;6.33;57.87;100846.81;4873694;29;11794;-75
2021/03/22 07:30:34;;;;;;;;;26.00;26.00;;;;;6.52;57.81;100840.50;4813626;29;11832;-74
2021/03/22 07:34:20;;;;;;;;;31.50;31.50;;;;;6.49;57.31;100839.16;4877062;29;12569;-73
2021/03/22 07:37:07;;;;;;;;;30.75;29.50;;;;;6.68;57.48;100834.44;4876882;29;11745;-74
2021/03/22 07:40:44;;;;;;;;;21.25;21.25;;;;;6.90;55.50;100827.44;4872572;29;11767;-73
2021/03/22 07:47:42;;;;;;;;;21.25;20.25;;;;;7.11;54.95;100814.94;4884812;29;11681;-75
2021/03/22 07:51:21;;;;;;;;;15.25;15.25;;;;;7.44;52.56;100812.94;4888852;29;11739;-74
2021/03/22 07:54:45;;;;;;;;;22.75;21.50;;;;;7.50;52.14;100814.44;4899106;29;11723;-75
2021/03/22 07:58:03;;;;;;;;;20.50;19.25;;;;;7.53;51.47;100799.25;4888520;29;11782;-75
2021/03/22 08:01:10;;;;;;;;;20.75;20.50;;;;;7.60;50.25;100804.34;4890689;29;11782;-76
2021/03/22 08:04:44;;;;;;;;;18.75;17.75;;;;;7.65;48.99;100796.78;4890880;29;11811;-75
2021/03/22 08:07:58;;;;;;;;;21.25;19.00;;;;;7.81;49.75;100789.81;4879213;29;11707;-76
2021/03/22 08:11:30;;;;;;;;;21.25;20.50;;;;;8.07;49.83;100792.00;4843359;29;11933;-75
2021/03/22 08:14:31;;;;;;;;;14.50;14.50;;;;;7.89;50.14;100785.50;4879713;29;11741;-74
2021/03/22 08:17:57;;;;;;;;;26.00;24.50;;;;;8.19;47.21;100783.97;4867799;29;11766;-74
2021/03/22 08:20:58;;;;;;;;;25.00;24.25;;;;;8.57;48.41;100781.66;4867755;29;11717;-77
2021/03/22 08:23:59;;;;;;;;;19.75;16.50;;;;;8.84;48.42;100774.38;4881544;29;11732;-75
2021/03/22 08:26:59;;;;;;;;;29.00;28.50;;;;;8.99;47.88;100773.97;4881467;29;11648;-77
2021/03/22 08:30:06;;;;;;;;;26.25;26.25;;;;;9.53;49.03;100766.31;4879890;29;11697;-78
2021/03/22 08:33:25;;;;;;;;;15.25;15.25;;;;;8.86;45.52;100758.31;4879302;29;11747;-76
2021/03/22 08:36:59;;;;;;;;;32.75;31.25;;;;;9.43;47.22;100753.66;4862926;29;11666;-77
2021/03/22 08:40:00;;;;;;;;;18.75;17.25;;;;;9.74;43.40;100755.47;4875369;29;11763;-77
2021/03/22 08:43:01;;;;;;;;;14.00;14.00;;;;;9.65;44.18;100747.16;4887491;29;11668;-77
2021/03/22 08:46:07;;;;;;;;;47.50;43.00;;;;;9.84;44.51;100743.28;4881667;29;11651;-77
2021/03/22 08:49:19;;;;;;;;;17.00;17.00;;;;;10.20;43.16;100749.31;4879419;29;12460;-77
2021/03/22 08:52:33;;;;;;;;;25.50;25.50;;;;;10.68;48.54;100736.38;4881780;29;11840;-77
2021/03/22 08:55:40;;;;;;;;;15.50;15.50;;;;;9.46;39.22;100732.84;4861863;29;12473;-75
2021/03/22 08:58:45;;;;;;;;;85.50;72.50;;;;;10.34;54.43;100743.59;4850874;29;11236;-80
2021/03/22 09:01:42;;;;;;;;;18.50;16.50;;;;;10.18;38.56;100734.97;4880931;29;11737;-76
2021/03/22 09:04:37;;;;;;;;;13.25;13.00;;;;;10.06;37.90;100729.31;4867413;29;11514;-77
2021/03/22 09:07:37;;;;;;;;;14.25;13.25;;;;;10.22;36.09;100719.41;4867724;29;11434;-78
2021/03/22 09:10:38;;;;;;;;;11.25;11.25;;;;;10.17;35.58;100719.53;4867248;29;10963;-78
2021/03/22 09:13:37;;;;;;;;;9.00;9.00;;;;;9.92;35.75;100715.66;4878002;29;11359;-78
2021/03/22 09:16:21;;;;;;;;;16.00;15.25;;;;;9.78;36.11;100712.25;4877752;29;11336;-78
2021/03/22 09:19:16;;;;;;;;;15.25;13.50;;;;;9.45;38.22;100714.69;4864944;29;11380;-75
2021/03/22 09:22:04;;;;;;;;;9.00;9.00;;;;;9.22;38.28;100696.63;4875963;29;11980;-74
2021/03/22 09:25:00;;;;;;;;;12.50;12.50;;;;;9.61;36.52;100702.03;4867236;29;11238;-75
2021/03/22 09:27:32;;;;;;;;;12.25;12.25;;;;;9.85;35.95;100706.25;4883928;29;11329;-76
2021/03/22 09:30:07;;;;;;;;;10.50;10.50;;;;;9.78;35.82;100700.41;4880803;29;11391;-74
2021/03/22 09:33:04;;;;;;;;;5.50;5.50;;;;;9.88;34.87;100702.81;4880335;29;11343;-75
2021/03/22 09:36:10;;;;;;;;;12.00;12.00;;;;;9.78;33.83;100701.22;4869445;29;11222;-74
2021/03/22 09:39:14;;;;;;;;;10.50;10.50;;;;;9.84;33.59;100702.69;4881056;29;11378;-76
2021/03/22 09:42:24;;;;;;;;;9.00;9.00;;;;;9.74;35.01;100692.78;4879278;29;11298;-77
2021/03/22 09:45:16;;;;;;;;;9.50;9.50;;;;;9.91;34.13;100699.44;4874781;29;11184;-78
2021/03/22 09:48:36;;;;;;;;;7.75;7.75;;;;;9.85;34.08;100692.44;4882521;29;11247;-80
2021/03/22 09:51:03;;;;;;;;;8.25;8.25;;;;;9.34;34.09;100677.47;4878881;29;11320;-75
2021/03/22 09:54:02;;;;;;;;;9.50;9.50;;;;;9.86;34.65;100685.78;4875223;29;11316;-77
2021/03/22 09:57:19;;;;;;;;;12.00;12.00;;;;;9.80;34.38;100676.81;4881184;29;11637;-77
2021/03/22 10:00:19;;;;;;;;;12.25;12.25;;;;;10.01;34.78;100679.75;4879826;29;12411;-78
2021/03/22 10:02:58;;;;;;;;;10.50;10.50;;;;;10.09;34.55;100683.63;4850259;29;11649;-78
2021/03/22 10:05:32;;;;;;;;;13.00;13.00;;;;;9.95;33.69;100690.16;4863766;29;11325;-78
2021/03/22 10:08:32;;;;;;;;;9.50;8.75;;;;;9.54;34.57;100682.38;4860727;29;11171;-74
2021/03/22 10:11:36;;;;;;;;;12.75;12.75;;;;;10.19;34.75;100684.09;4860081;29;11099;-77
2021/03/22 10:14:39;;;;;;;;;10.75;10.75;;;;;10.11;33.38;100676.63;4861704;29;11139;-79
2021/03/22 10:17:35;;;;;;;;;11.00;11.00;;;;;9.75;33.40;100680.59;4861268;29;11047;-79
2021/03/22 10:20:34;;;;;;;;;12.25;12.25;;;;;10.13;32.61;100671.59;4860345;29;11401;-79
2021/03/22 10:23:39;;;;;;;;;7.25;7.25;;;;;10.02;34.01;100673.88;4848155;29;11341;-77
2021/03/22 10:26:47;;;;;;;;;8.50;8.50;;;;;9.87;32.92;100657.00;4847956;29;11253;-77
2021/03/22 10:29:43;;;;;;;;;9.75;9.25;;;;;10.02;33.97;100651.78;4860320;29;11157;-76
2021/03/22 10:32:45;;;;;;;;;12.00;12.00;;;;;10.53;33.61;100652.00;4860283;29;11099;-76
2021/03/22 10:35:50;;;;;;;;;10.25;10.25;;;;;10.01;33.09;100647.41;4859825;29;11084;-76
2021/03/22 10:38:50;;;;;;;;;8.25;8.25;;;;;10.30;33.94;100629.31;4848115;29;11000;-77
2021/03/22 10:41:46;;;;;;;;;8.00;7.50;;;;;9.71;34.01;100629.88;4861268;29;10993;-73
2021/03/22 10:44:42;;;;;;;;;10.25;10.25;;;;;10.11;33.67;100632.41;4870960;29;11756;-76
2021/03/22 10:47:38;;;;;;;;;8.25;8.25;;;;;10.11;34.23;100618.59;4871079;29;11155;-77
2021/03/22 10:50:36;;;;;;;;;10.50;10.50;;;;;10.47;34.13;100617.38;4871030;29;11045;-76
2021/03/22 10:53:32;;;;;;;;;12.25;12.25;;;;;10.81;33.65;100605.31;4848098;29;11077;-78
2021/03/22 10:56:44;;;;;;;;;7.25;7.25;;;;;11.09;33.69;100602.88;4858675;29;12374;-78
2021/03/22 10:59:43;;;;;;;;;10.75;10.00;;;;;11.09;33.01;100595.38;4861351;29;10864;-77
2021/03/22 11:02:45;;;;;;;;;8.00;8.00;;;;;11.38;31.94;100597.28;4860902;29;10843;-78
2021/03/22 11:05:16;;;;;;;;;15.75;15.75;;;;;11.44;31.66;100599.84;4844749;29;10793;-77
2021/03/22 11:08:32;;;;;;;;;10.75;10.75;;;;;11.53;31.26;100598.63;4860981;29;10586;-78
2021/03/22 11:11:31;;;;;;;;;9.75;9.75;;;;;10.50;33.10;100589.06;4861019;29;10769;-77
2021/03/22 11:14:30;;;;;;;;;9.75;9.75;;;;;10.91;32.55;100595.84;4859117;29;10820;-78
2021/03/22 11:17:26;;;;;;;;;10.50;10.50;;;;;11.52;32.47;100590.66;4861793;29;10813;-77
2021/03/22 11:19:56;;;;;;;;;13.50;13.50;;;;;11.10;31.98;100587.88;4845013;29;10916;-76
2021/03/22 11:22:52;;;;;;;;;10.75;10.00;;;;;10.92;32.33;100589.97;4847346;29;10648;-75
2021/03/22 11:25:49;;;;;;;;;10.75;10.25;;;;;10.97;32.75;100589.78;4848854;29;10723;-76
2021/03/22 11:28:45;;;;;;;;;8.50;8.50;;;;;10.23;33.24;100595.84;4864898;29;10865;-75
2021/03/22 11:31:50;;;;;;;;;8.00;8.00;;;;;9.99;34.05;100590.84;4864701;29;10709;-76
2021/03/22 11:34:29;;;;;;;;;7.75;7.75;;;;;10.48;34.04;100588.59;4834481;29;11115;-76
2021/03/22 11:37:14;;;;;;;;;8.50;8.50;;;;;10.58;32.05;100579.91;4867127;29;11675;-75
2021/03/22 11:40:20;;;;;;;;;11.50;11.50;;;;;10.86;31.81;100578.28;4862966;29;10988;-78
2021/03/22 11:43:36;;;;;;;;;3.25;3.25;;;;;11.02;32.03;100584.03;4863005;29;11011;-77
2021/03/22 11:46:33;;;;;;;;;9.00;9.00;;;;;11.88;31.31;100579.72;4850409;29;10817;-77
2021/03/22 11:49:42;;;;;;;;;9.00;9.00;;;;;11.96;30.83;100583.53;4863592;29;10739;-77
2021/03/22 11:52:37;;;;;;;;;9.00;7.75;;;;;11.03;31.97;100577.34;4863200;29;10444;-76
2021/03/22 11:55:43;;;;;;;;;14.00;14.00;;;;;12.01;30.77;100586.09;4873839;29;10894;-75
2021/03/22 11:58:30;;;;;;;;;14.50;13.50;;;;;12.09;30.45;100571.34;4865155;29;10746;-78
2021/03/22 12:01:28;;;;;;;;;8.00;8.00;;;;;11.63;30.05;100573.25;4862563;29;10682;-75
2021/03/22 12:04:24;;;;;;;;;11.50;11.50;;;;;11.64;30.88;100561.03;4862709;29;10585;-76
2021/03/22 12:07:41;;;;;;;;;10.50;9.50;;;;;11.64;32.51;100563.78;4864182;29;11248;-77
2021/03/22 12:10:37;;;;;;;;;13.50;13.50;;;;;11.99;32.13;100566.25;4863006;29;10466;-76
2021/03/22 12:13:18;;;;;;;;;8.75;8.25;;;;;11.42;30.56;100569.69;4862236;29;10562;-76
2021/03/22 12:16:30;;;;;;;;;9.00;9.00;;;;;11.44;31.35;100559.13;4863620;29;10653;-75
2021/03/22 12:19:38;;;;;;;;;13.00;13.00;;;;;11.14;31.32;100556.44;4851264;29;10641;-76
2021/03/22 12:22:34;;;;;;;;;11.00;11.00;;;;;11.29;30.93;100551.44;4862244;29;11661;-76
2021/03/22 12:25:32;;;;;;;;;11.00;11.00;;;;;11.01;30.68;100548.41;4873062;29;10746;-76
2021/03/22 12:28:28;;;;;;;;;10.00;10.00;;;;;11.17;31.80;100546.63;4880743;29;10823;-77
2021/03/22 12:31:15;;;;;;;;;10.25;10.25;;;;;11.39;31.89;100543.50;4872917;29;11616;-75
2021/03/22 12:34:24;;;;;;;;;9.50;8.75;;;;;11.85;31.08;100535.25;4872042;29;10935;-76
2021/03/22 12:37:31;;;;;;;;;10.50;10.50;;;;;11.68;29.68;100537.03;4872375;29;10469;-78
2021/03/22 12:40:27;;;;;;;;;11.25;11.25;;;;;11.79;31.17;100545.72;4875005;29;10705;-75
2021/03/22 12:43:32;;;;;;;;;7.50;7.50;;;;;11.72;30.95;100534.38;4870538;29;10753;-77
2021/03/22 12:46:28;;;;;;;;;10.00;10.00;;;;;11.52;31.70;100529.72;4878525;29;10728;-76
2021/03/22 12:49:25;;;;;;;;;13.75;13.75;;;;;11.00;32.26;100519.91;4878735;29;10682;-77
2021/03/22 12:52:21;;;;;;;;;12.25;12.25;;;;;10.88;33.26;100519.03;4876983;29;10901;-77
2021/03/22 12:55:20;;;;;;;;;12.25;12.25;;;;;10.89;33.06;100518.72;4879820;29;10875;-76
2021/03/22 12:57:50;;;;;;;;;13.25;13.25;;;;;10.90;32.49;100514.78;4878189;29;10951;-75
2021/03/22 13:00:32;;;;;;;;;9.50;9.50;;;;;10.13;33.62;100514.09;4869121;29;11052;-75
2021/03/22 13:03:27;;;;;;;;;9.00;9.00;;;;;9.85;34.70;100512.91;4880266;29;11047;-73
2021/03/22 13:06:25;;;;;;;;;11.25;9.00;;;;;9.62;34.60;100515.88;4868630;29;11134;-75
2021/03/22 13:09:21;;;;;;;;;8.00;8.00;;;;;10.18;34.15;100500.06;4869786;29;11191;-75
2021/03/22 13:11:51;;;;;;;;;14.00;14.00;;;;;10.43;33.78;100503.88;4880669;29;11280;-77
2021/03/22 13:14:49;;;;;;;;;10.00;10.00;;;;;10.13;34.35;100499.47;4869256;29;11311;-76
2021/03/22 13:17:35;;;;;;;;;12.25;12.25;;;;;10.32;34.04;100510.94;4870238;29;11070;-75
2021/03/22 13:20:31;;;;;;;;;13.00;13.00;;;;;10.47;34.63;100517.84;4886633;29;11026;-74
2021/03/22 13:23:20;;;;;;;;;19.25;18.00;;;;;10.70;33.42;100504.53;4880320;29;11043;-76
2021/03/22 13:26:17;;;;;;;;;12.25;12.25;;;;;10.90;33.40;100502.94;4890409;29;11320;-77
2021/03/22 13:29:13;;;;;;;;;22.50;20.75;;;;;10.73;33.33;100501.88;4868923;29;10966;-77
2021/03/22 13:31:42;;;;;;;;;16.00;15.25;;;;;10.66;33.15;100504.41;4877336;29;10986;-75
2021/03/22 13:34:38;;;;;;;;;14.75;14.75;;;;;10.68;33.28;100507.63;4878847;29;11127;-77
2021/03/22 13:37:34;;;;;;;;;12.25;12.25;;;;;10.79;33.02;100508.03;4877740;29;11100;-76
2021/03/22 13:40:31;;;;;;;;;7.00;7.00;;;;;10.17;33.77;100505.94;4881394;29;10965;-75
2021/03/22 13:43:28;;;;;;;;;9.00;9.00;;;;;10.29;33.75;100503.31;4876411;29;10939;-76